createdAt,value
2018-04-13T00:02:24.948Z,15.40
2018-04-13T00:04:53.021Z,15.40
2018-04-13T00:07:21.113Z,15.30
2018-04-13T00:09:49.203Z,15.20
2018-04-13T00:12:17.245Z,15.10
2018-04-13T00:14:45.327Z,15.00
2018-04-13T00:17:13.381Z,14.90
2018-04-13T00:19:41.452Z,14.90
2018-04-13T00:22:09.517Z,14.90
2018-04-13T00:24:37.607Z,15.00
2018-04-13T00:27:05.680Z,14.90
2018-04-13T00:29:33.739Z,14.90
2018-04-13T00:32:01.808Z,14.90
2018-04-13T00:34:29.890Z,14.90
2018-04-13T00:36:57.962Z,14.80
2018-04-13T00:39:26.045Z,14.80
2018-04-13T00:41:54.101Z,14.80
2018-04-13T00:44:22.173Z,14.70
2018-04-13T00:46:50.230Z,14.70
2018-04-13T00:49:18.338Z,14.60
2018-04-13T00:51:46.375Z,14.60
2018-04-13T00:54:14.449Z,14.70
2018-04-13T00:56:42.528Z,14.60
2018-04-13T00:59:10.606Z,14.70
2018-04-13T01:01:38.656Z,14.70
2018-04-13T01:04:06.715Z,14.70
2018-04-13T01:06:34.800Z,14.70
2018-04-13T01:09:02.857Z,14.70
2018-04-13T01:11:30.924Z,14.60
2018-04-13T01:13:58.967Z,14.60
2018-04-13T01:16:27.074Z,14.60
2018-04-13T01:18:55.137Z,14.50
2018-04-13T01:21:23.205Z,14.50
2018-04-13T01:23:51.305Z,14.60
2018-04-13T01:26:19.346Z,14.60
2018-04-13T01:28:47.487Z,14.60
2018-04-13T01:31:15.514Z,14.60
2018-04-13T01:33:43.562Z,14.60
2018-04-13T01:36:11.708Z,14.60
2018-04-13T01:38:39.713Z,14.60
2018-04-13T01:41:07.775Z,14.60
2018-04-13T01:43:36.581Z,14.60
2018-04-13T01:46:04.647Z,14.60
2018-04-13T01:48:32.810Z,14.60
2018-04-13T01:51:00.843Z,14.60
2018-04-13T01:53:28.898Z,14.60
2018-04-13T01:55:57.010Z,14.60
2018-04-13T01:58:25.037Z,14.60
2018-04-13T02:00:53.110Z,14.60
2018-04-13T02:03:21.189Z,14.60
2018-04-13T02:05:49.248Z,14.60
2018-04-13T02:08:17.323Z,14.60
2018-04-13T02:10:45.392Z,14.50
2018-04-13T02:13:14.227Z,14.50
2018-04-13T02:15:42.305Z,14.50
2018-04-13T02:18:11.141Z,14.50
2018-04-13T02:20:39.174Z,14.50
2018-04-13T02:23:07.278Z,14.50
2018-04-13T02:25:35.326Z,14.50
2018-04-13T02:28:03.402Z,14.50
2018-04-13T02:30:31.537Z,14.50
2018-04-13T02:32:59.617Z,14.50
2018-04-13T02:35:28.473Z,14.50
2018-04-13T02:37:56.527Z,14.50
2018-04-13T02:40:24.581Z,14.50
2018-04-13T02:42:52.669Z,14.50
2018-04-13T02:45:20.772Z,14.50
2018-04-13T02:47:48.851Z,14.50
2018-04-13T02:50:18.436Z,14.50
2018-04-13T02:52:46.882Z,14.60
2018-04-13T02:55:15.381Z,14.60
2018-04-13T02:57:43.789Z,14.50
2018-04-13T03:00:11.886Z,14.50
2018-04-13T03:02:40.705Z,14.50
2018-04-13T03:05:08.796Z,14.50
2018-04-13T03:07:36.935Z,14.50
2018-04-13T03:10:04.918Z,14.50
2018-04-13T03:12:32.964Z,14.50
2018-04-13T03:15:01.842Z,14.50
2018-04-13T03:17:29.906Z,14.50
2018-04-13T03:19:57.985Z,14.50
2018-04-13T03:22:26.798Z,14.50
2018-04-13T03:24:56.209Z,14.40
2018-04-13T03:27:24.243Z,14.40
2018-04-13T03:29:52.321Z,14.40
2018-04-13T03:32:21.136Z,14.40
2018-04-13T03:34:49.219Z,14.40
2018-04-13T03:37:17.271Z,14.40
2018-04-13T03:39:46.178Z,14.30
2018-04-13T03:42:15.926Z,14.30
2018-04-13T03:44:44.012Z,14.30
2018-04-13T03:47:12.103Z,14.30
2018-04-13T03:49:40.163Z,14.30
2018-04-13T03:52:08.985Z,14.30
2018-04-13T03:54:37.054Z,14.30
2018-04-13T03:57:06.463Z,14.30
2018-04-13T03:59:34.526Z,14.30
2018-04-13T04:02:02.592Z,14.30
2018-04-13T04:04:30.767Z,14.30
2018-04-13T04:06:58.782Z,14.30
2018-04-13T04:09:26.891Z,14.30
2018-04-13T04:11:54.921Z,14.30
2018-04-13T04:14:23.024Z,14.30
2018-04-13T04:16:51.126Z,14.30
2018-04-13T04:19:26.430Z,14.30
2018-04-13T04:22:06.499Z,14.30
2018-04-13T04:24:48.155Z,14.30
2018-04-13T04:27:16.220Z,14.30
2018-04-13T04:29:44.279Z,14.30
2018-04-13T04:32:12.346Z,14.30
2018-04-13T04:34:40.393Z,14.30
2018-04-13T04:37:08.513Z,14.20
2018-04-13T04:39:37.083Z,14.20
2018-04-13T04:42:05.153Z,14.10
2018-04-13T04:44:33.182Z,14.20
2018-04-13T04:47:01.286Z,14.20
2018-04-13T04:49:29.347Z,14.20
2018-04-13T04:51:57.448Z,14.20
2018-04-13T04:54:25.509Z,14.20
2018-04-13T04:56:53.617Z,14.10
2018-04-13T04:59:21.694Z,14.20
2018-04-13T05:01:49.749Z,14.10
2018-04-13T05:04:17.826Z,14.20
2018-04-13T05:06:45.879Z,14.30
2018-04-13T05:09:13.929Z,14.30
2018-04-13T05:11:42.014Z,14.30
2018-04-13T05:14:10.491Z,14.30
2018-04-13T05:16:38.571Z,14.40
2018-04-13T05:19:06.633Z,14.40
2018-04-13T05:21:34.685Z,14.40
2018-04-13T05:24:02.820Z,14.40
2018-04-13T05:26:30.860Z,14.50
2018-04-13T05:28:58.962Z,14.50
2018-04-13T05:31:26.997Z,14.60
2018-04-13T05:33:55.043Z,14.60
2018-04-13T05:36:23.135Z,14.70
2018-04-13T05:38:51.209Z,14.60
2018-04-13T05:41:19.258Z,14.70
2018-04-13T05:43:47.363Z,14.80
2018-04-13T05:46:15.438Z,14.80
2018-04-13T05:48:43.512Z,14.80
2018-04-13T05:51:11.557Z,14.80
2018-04-13T05:53:39.638Z,14.90
2018-04-13T05:56:08.101Z,14.90
2018-04-13T05:58:36.141Z,14.90
2018-04-13T06:01:05.077Z,14.90
2018-04-13T06:03:33.153Z,14.90
2018-04-13T06:06:01.195Z,15.00
2018-04-13T06:08:30.036Z,15.00
2018-04-13T06:10:58.091Z,15.10
2018-04-13T06:13:26.238Z,15.20
2018-04-13T06:15:54.226Z,15.20
2018-04-13T06:18:22.303Z,15.20
2018-04-13T06:20:50.434Z,15.20
2018-04-13T06:23:18.455Z,15.30
2018-04-13T06:25:47.315Z,15.40
2018-04-13T06:28:15.395Z,15.50
2018-04-13T06:30:43.495Z,15.60
2018-04-13T06:33:11.553Z,15.70
2018-04-13T06:35:39.637Z,15.70
2018-04-13T06:38:08.511Z,15.70
2018-04-13T06:40:36.562Z,15.80
2018-04-13T06:43:05.233Z,15.90
2018-04-13T06:45:34.058Z,15.90
2018-04-13T06:48:02.157Z,15.90
2018-04-13T06:50:31.016Z,15.90
2018-04-13T06:52:59.697Z,15.80
2018-04-13T06:55:28.481Z,15.80
2018-04-13T06:57:56.627Z,15.70
2018-04-13T07:00:24.799Z,15.60
2018-04-13T07:02:52.878Z,15.60
2018-04-13T07:05:21.734Z,15.60
2018-04-13T07:07:49.762Z,15.60
2018-04-13T07:10:17.843Z,15.60
2018-04-13T07:12:45.884Z,15.60
2018-04-13T07:15:14.646Z,15.60
2018-04-13T07:17:43.509Z,15.70
2018-04-13T07:20:11.555Z,15.70
2018-04-13T07:22:39.651Z,15.70
2018-04-13T07:25:07.800Z,15.70
2018-04-13T07:27:35.823Z,15.80
2018-04-13T07:30:04.667Z,15.80
2018-04-13T07:32:33.916Z,15.80
2018-04-13T07:35:01.923Z,15.80
2018-04-13T07:37:30.968Z,15.90
2018-04-13T07:39:59.605Z,16.00
2018-04-13T07:42:27.649Z,16.00
2018-04-13T07:44:55.728Z,16.00
2018-04-13T07:47:24.317Z,16.00
2018-04-13T07:49:52.477Z,16.00
2018-04-13T07:52:20.523Z,16.00
2018-04-13T07:54:48.583Z,15.90
2018-04-13T07:57:16.638Z,15.90
2018-04-13T07:59:45.339Z,15.90
2018-04-13T08:02:12.771Z,15.90
2018-04-13T08:04:40.949Z,15.90
2018-04-13T08:07:08.878Z,15.90
2018-04-13T08:09:36.966Z,16.00
2018-04-13T08:12:05.012Z,16.00
2018-04-13T08:14:33.868Z,16.10
2018-04-13T08:17:01.914Z,16.10
2018-04-13T08:19:29.994Z,16.20
2018-04-13T08:21:58.067Z,16.20
2018-04-13T08:24:26.147Z,16.30
2018-04-13T08:26:54.210Z,16.30
2018-04-13T08:29:22.296Z,16.50
2018-04-13T08:31:50.422Z,16.60
2018-04-13T08:34:18.434Z,16.70
2018-04-13T08:36:46.501Z,16.60
2018-04-13T08:39:15.311Z,16.70
2018-04-13T08:41:43.350Z,16.70
2018-04-13T08:44:11.947Z,16.70
2018-04-13T08:46:40.057Z,16.80
2018-04-13T08:49:08.202Z,16.80
2018-04-13T08:51:36.185Z,16.90
2018-04-13T08:54:04.285Z,17.00
2018-04-13T08:56:32.330Z,17.00
2018-04-13T08:59:00.370Z,17.00
2018-04-13T09:01:28.474Z,17.00
2018-04-13T09:03:56.568Z,17.00
2018-04-13T09:06:24.673Z,17.00
2018-04-13T09:08:53.471Z,17.10
2018-04-13T09:11:21.534Z,17.10
2018-04-13T09:13:49.667Z,17.20
2018-04-13T09:16:17.709Z,17.20
2018-04-13T09:18:45.802Z,17.30
2018-04-13T09:21:13.843Z,17.30
2018-04-13T09:23:41.961Z,17.30
2018-04-13T09:26:11.373Z,17.30
2018-04-13T09:28:40.114Z,17.20
2018-04-13T09:31:08.171Z,17.10
2018-04-13T09:33:36.268Z,17.10
2018-04-13T09:36:05.106Z,17.40
2018-04-13T09:38:33.175Z,17.40
2018-04-13T09:41:01.287Z,17.70
2018-04-13T09:43:29.337Z,17.90
2018-04-13T09:45:57.387Z,18.00
2018-04-13T09:48:25.453Z,18.20
2018-04-13T09:50:54.361Z,18.20
2018-04-13T09:53:22.446Z,18.30
2018-04-13T09:55:50.522Z,18.30
2018-04-13T09:58:18.589Z,18.40
2018-04-13T10:00:46.653Z,18.60
2018-04-13T10:03:20.689Z,18.70
2018-04-13T10:05:48.783Z,18.80
2018-04-13T10:08:17.618Z,18.90
2018-04-13T10:10:45.681Z,18.90
2018-04-13T10:13:13.771Z,18.90
2018-04-13T10:15:41.911Z,18.90
2018-04-13T10:18:10.707Z,18.70
2018-04-13T10:20:38.750Z,18.80
2018-04-13T10:23:07.586Z,18.70
2018-04-13T10:25:35.680Z,18.90
2018-04-13T10:28:03.743Z,18.60
2018-04-13T10:30:31.799Z,18.60
2018-04-13T10:32:59.847Z,18.60
2018-04-13T10:35:28.011Z,18.50
2018-04-13T10:37:56.063Z,18.40
2018-04-13T10:40:24.918Z,18.20
2018-04-13T10:42:52.986Z,18.20
2018-04-13T10:45:21.057Z,18.20
2018-04-13T10:47:49.181Z,18.10
2018-04-13T10:50:17.604Z,18.30
2018-04-13T10:52:45.736Z,18.30
2018-04-13T10:55:13.803Z,18.30
2018-04-13T10:57:42.618Z,18.30
2018-04-13T11:00:10.718Z,18.30
2018-04-13T11:02:38.789Z,18.20
2018-04-13T11:05:06.846Z,18.10
2018-04-13T11:07:34.984Z,18.10
2018-04-13T11:10:03.158Z,18.10
2018-04-13T11:12:31.174Z,18.00
2018-04-13T11:14:59.243Z,18.00
2018-04-13T11:17:27.316Z,18.00
2018-04-13T11:19:55.378Z,18.00
2018-04-13T11:22:23.458Z,18.10
2018-04-13T11:24:52.324Z,18.20
2018-04-13T11:27:21.131Z,18.20
2018-04-13T11:29:49.582Z,18.20
2018-04-13T11:32:17.669Z,18.20
2018-04-13T11:34:46.490Z,18.30
2018-04-13T11:37:16.066Z,18.30
2018-04-13T11:39:44.160Z,18.40
2018-04-13T11:42:12.216Z,18.50
2018-04-13T11:44:40.279Z,18.60
2018-04-13T11:47:08.415Z,18.60
2018-04-13T11:49:37.247Z,18.80
2018-04-13T11:52:05.300Z,19.00
2018-04-13T11:54:33.360Z,19.00
2018-04-13T11:57:01.409Z,19.10
2018-04-13T11:59:29.490Z,19.10
2018-04-13T12:01:58.301Z,19.10
2018-04-13T12:06:56.450Z,19.10
2018-04-13T12:09:24.906Z,19.10
2018-04-13T12:11:52.978Z,19.00
2018-04-13T12:14:21.082Z,19.10
2018-04-13T12:16:49.939Z,19.20
2018-04-13T12:19:18.011Z,19.30
2018-04-13T12:21:46.077Z,19.40
2018-04-13T12:24:14.170Z,19.30
2018-04-13T12:26:42.247Z,19.30
2018-04-13T12:29:10.339Z,19.30
2018-04-13T12:31:39.319Z,19.00
2018-04-13T12:34:07.777Z,18.90
2018-04-13T12:36:35.835Z,18.90
2018-04-13T12:39:04.682Z,18.70
2018-04-13T12:41:32.736Z,18.60
2018-04-13T12:44:01.591Z,18.40
2018-04-13T12:46:29.714Z,18.30
2018-04-13T12:48:58.600Z,18.30
2018-04-13T12:51:29.209Z,18.20
2018-04-13T12:53:57.379Z,18.10
2018-04-13T12:56:25.487Z,18.10
2018-04-13T12:58:53.552Z,18.10
2018-04-13T13:01:22.450Z,18.00
2018-04-13T13:03:50.509Z,18.00
2018-04-13T13:06:19.335Z,18.00
2018-04-13T13:08:47.450Z,17.90
2018-04-13T13:11:15.446Z,17.90
2018-04-13T13:13:43.630Z,17.80
2018-04-13T13:16:11.692Z,17.80
2018-04-13T13:18:40.380Z,17.70
2018-04-13T13:23:39.138Z,17.60
2018-04-13T13:26:07.239Z,17.50
2018-04-13T13:28:36.063Z,17.40
2018-04-13T13:31:04.195Z,17.40
2018-04-13T13:33:32.242Z,17.40
2018-04-13T13:36:00.313Z,17.40
2018-04-13T13:38:28.366Z,17.30
2018-04-13T13:40:56.438Z,17.20
2018-04-13T13:43:24.522Z,17.10
2018-04-13T13:45:53.334Z,17.00
2018-04-13T13:48:21.453Z,17.00
2018-04-13T13:50:50.261Z,17.00
2018-04-13T13:53:21.000Z,17.00
2018-04-13T13:55:50.571Z,17.00
2018-04-13T13:58:20.100Z,17.00
2018-04-13T14:00:48.910Z,17.00
2018-04-13T14:03:16.995Z,17.00
2018-04-13T14:05:45.061Z,17.00
2018-04-13T14:08:14.177Z,16.90
2018-04-13T14:10:43.247Z,16.90
2018-04-13T14:15:45.430Z,16.80
2018-04-13T14:18:13.498Z,16.80
2018-04-13T14:20:42.004Z,18.80
2018-04-13T14:23:12.253Z,16.80
2018-04-13T14:25:42.136Z,16.80
2018-04-13T14:28:11.129Z,16.80
2018-04-13T14:30:39.271Z,16.80
2018-04-13T14:33:08.186Z,16.80
2018-04-13T14:35:36.237Z,16.70
2018-04-13T14:40:36.544Z,16.60
2018-04-13T14:43:05.072Z,16.60
2018-04-13T14:45:33.139Z,16.50
2018-04-13T14:48:02.045Z,16.50
2018-04-13T14:50:30.144Z,16.40
2018-04-13T14:52:59.178Z,16.40
2018-04-13T14:55:27.284Z,16.40
2018-04-13T14:57:55.351Z,16.30
2018-04-13T15:00:27.453Z,16.30
2018-04-13T15:02:56.259Z,16.20
2018-04-13T15:05:25.057Z,16.20
2018-04-13T15:07:55.706Z,16.20
2018-04-13T15:10:25.166Z,16.20
2018-04-13T15:12:55.530Z,16.20
2018-04-13T15:15:24.752Z,16.20
2018-04-13T15:17:52.843Z,16.10
2018-04-13T15:20:23.059Z,16.20
2018-04-13T15:22:51.161Z,16.20
2018-04-13T15:25:19.264Z,16.20
2018-04-13T15:27:47.309Z,16.20
2018-04-13T15:30:15.387Z,16.20
2018-04-13T15:32:43.449Z,16.30
2018-04-13T15:35:11.522Z,16.20
2018-04-13T15:37:39.619Z,16.30
2018-04-13T15:40:07.663Z,16.30
2018-04-13T15:42:37.021Z,16.20
2018-04-13T15:45:05.111Z,16.20
2018-04-13T15:47:33.921Z,16.20
2018-04-13T15:50:02.002Z,16.10
2018-04-13T15:52:30.062Z,16.10
2018-04-13T15:54:58.227Z,16.10
2018-04-13T15:57:26.693Z,16.00
2018-04-13T15:59:54.798Z,16.00
2018-04-13T16:02:22.834Z,16.00
2018-04-13T16:04:50.890Z,16.00
2018-04-13T16:07:20.136Z,15.90
2018-04-13T16:09:48.207Z,15.90
2018-04-13T16:12:16.280Z,15.80
2018-04-13T16:14:44.322Z,15.80
2018-04-13T16:17:13.143Z,15.80
2018-04-13T16:19:42.132Z,15.70
2018-04-13T16:22:11.575Z,15.70
2018-04-13T16:24:40.185Z,15.70
2018-04-13T16:27:08.263Z,15.70
2018-04-13T16:29:36.330Z,15.60
2018-04-13T16:32:04.414Z,15.60
2018-04-13T16:34:33.226Z,15.50
2018-04-13T16:37:01.285Z,15.50
2018-04-13T16:39:30.491Z,15.50
2018-04-13T16:41:58.567Z,15.50
2018-04-13T16:44:26.630Z,15.50
2018-04-13T16:46:55.461Z,15.40
2018-04-13T16:49:24.056Z,15.50
2018-04-13T16:51:54.722Z,15.50
2018-04-13T16:54:23.956Z,15.40
2018-04-13T16:56:52.002Z,15.40
2018-04-13T16:59:20.870Z,15.40
2018-04-13T17:01:49.879Z,15.40
2018-04-13T17:04:18.777Z,15.40
2018-04-13T17:06:46.817Z,15.40
2018-04-13T17:09:15.734Z,15.40
2018-04-13T17:11:43.807Z,15.40
2018-04-13T17:14:11.895Z,15.40
2018-04-13T17:16:40.358Z,15.40
2018-04-13T17:19:08.494Z,15.40
2018-04-13T17:21:36.618Z,15.40
2018-04-13T17:26:36.617Z,15.40
2018-04-13T17:29:04.722Z,15.40
2018-04-13T17:31:36.941Z,15.40
2018-04-13T17:34:10.175Z,15.40
2018-04-13T17:36:40.115Z,15.40
2018-04-13T17:39:09.088Z,15.30
2018-04-13T17:41:37.937Z,15.30
2018-04-13T17:44:09.896Z,15.30
2018-04-13T17:46:37.980Z,15.20
2018-04-13T17:49:07.555Z,15.20
2018-04-13T17:51:36.433Z,15.20
2018-04-13T17:54:05.021Z,15.20
2018-04-13T17:56:34.000Z,15.20
2018-04-13T17:59:02.909Z,15.20
2018-04-13T18:01:31.944Z,15.20
2018-04-13T18:04:00.354Z,15.20
2018-04-13T18:06:30.800Z,15.10
2018-04-13T18:08:59.034Z,15.10
2018-04-13T18:11:28.561Z,15.00
2018-04-13T18:13:56.787Z,14.90
2018-04-13T18:16:26.772Z,14.80
2018-04-13T18:18:54.874Z,14.70
2018-04-13T18:21:23.098Z,14.70
2018-04-13T18:23:51.169Z,14.70
2018-04-13T18:26:19.259Z,14.60
2018-04-13T18:28:47.434Z,14.60
2018-04-13T18:31:15.508Z,14.60
2018-04-13T18:33:43.572Z,14.60
2018-04-13T18:36:11.692Z,14.50
2018-04-13T18:38:39.826Z,14.50
2018-04-13T18:41:11.810Z,14.50
2018-04-13T18:43:40.848Z,14.50
2018-04-13T18:46:08.897Z,14.40
2018-04-13T18:48:37.730Z,14.40
2018-04-13T18:51:06.409Z,14.40
2018-04-13T18:53:34.520Z,14.30
2018-04-13T18:56:02.596Z,14.20
2018-04-13T18:58:30.807Z,14.20
2018-04-13T19:01:00.318Z,14.10
2018-04-13T19:03:29.592Z,14.10
2018-04-13T19:05:57.694Z,14.20
2018-04-13T19:08:27.239Z,14.20
2018-04-13T19:10:55.396Z,14.20
2018-04-13T19:13:23.651Z,14.20
2018-04-13T19:15:52.998Z,14.20
2018-04-13T19:18:22.074Z,14.20
2018-04-13T19:20:52.116Z,14.30
2018-04-13T19:23:20.265Z,14.30
2018-04-13T19:25:49.337Z,14.30
2018-04-13T19:28:19.289Z,14.30
2018-04-13T19:30:49.318Z,14.30
2018-04-13T19:33:18.543Z,14.30
2018-04-13T19:35:46.734Z,14.20
2018-04-13T19:38:16.297Z,14.30
2018-04-13T19:40:44.344Z,14.30
2018-04-13T19:43:12.448Z,14.20
2018-04-13T19:45:40.556Z,14.20
2018-04-13T19:48:09.378Z,14.20
2018-04-13T19:50:37.641Z,14.20
2018-04-13T19:53:06.095Z,14.20
2018-04-13T19:55:35.706Z,14.30
2018-04-13T19:58:04.959Z,14.30
2018-04-13T20:00:37.005Z,14.20
2018-04-13T20:03:05.094Z,14.30
2018-04-13T20:05:33.130Z,14.20
2018-04-13T20:08:01.196Z,14.20
2018-04-13T20:10:29.231Z,14.10
2018-04-13T20:12:57.307Z,14.10
2018-04-13T20:15:25.420Z,14.10
2018-04-13T20:17:55.045Z,14.10
2018-04-13T20:20:23.144Z,14.10
2018-04-13T20:22:51.211Z,14.10
2018-04-13T20:25:19.251Z,14.10
2018-04-13T20:27:47.331Z,14.10
2018-04-13T20:30:15.401Z,14.10
2018-04-13T20:32:43.449Z,14.00
2018-04-13T20:35:11.551Z,14.00
2018-04-13T20:37:39.647Z,13.90
2018-04-13T20:40:07.725Z,13.90
2018-04-13T20:42:35.777Z,13.90
2018-04-13T20:45:03.901Z,13.90
2018-04-13T20:47:31.995Z,13.90
2018-04-13T20:50:00.086Z,13.90
2018-04-13T20:52:28.121Z,13.90
2018-04-13T20:54:56.258Z,13.90
2018-04-13T20:57:24.346Z,14.00
2018-04-13T20:59:53.159Z,13.90
2018-04-13T21:02:21.227Z,13.90
2018-04-13T21:04:49.282Z,13.90
2018-04-13T21:07:18.137Z,14.00
2018-04-13T21:09:46.225Z,14.00
2018-04-13T21:12:14.321Z,14.00
2018-04-13T21:14:43.128Z,14.00
2018-04-13T21:17:11.189Z,14.00
2018-04-13T21:19:39.238Z,14.00
2018-04-13T21:22:07.361Z,14.00
2018-04-13T21:24:35.459Z,14.00
2018-04-13T21:27:03.914Z,14.00
2018-04-13T21:29:32.033Z,14.00
2018-04-13T21:32:01.565Z,13.90
2018-04-13T21:34:29.634Z,13.90
2018-04-13T21:36:57.694Z,14.00
2018-04-13T21:39:26.486Z,13.90
2018-04-13T21:41:54.599Z,13.90
2018-04-13T21:44:22.613Z,14.00
2018-04-13T21:46:52.838Z,13.90
2018-04-13T21:49:21.791Z,13.90
2018-04-13T21:51:50.715Z,13.90
2018-04-13T21:54:18.746Z,13.90
2018-04-13T21:56:46.857Z,13.90
2018-04-13T21:59:14.906Z,13.80
2018-04-13T22:01:42.994Z,13.80
2018-04-13T22:04:11.070Z,13.80
2018-04-13T22:06:39.914Z,13.80
2018-04-13T22:09:08.014Z,13.80
2018-04-13T22:11:36.067Z,13.70
2018-04-13T22:14:16.080Z,13.80
2018-04-13T22:16:44.897Z,13.80
2018-04-13T22:19:12.971Z,13.80
2018-04-13T22:21:41.016Z,13.80
2018-04-13T22:24:09.477Z,13.80
2018-04-13T22:26:37.978Z,13.80
2018-04-13T22:29:06.864Z,13.80
2018-04-13T22:31:36.046Z,13.70
2018-04-13T22:34:04.114Z,13.80
2018-04-13T22:36:34.013Z,13.70
2018-04-13T22:39:02.062Z,13.70
2018-04-13T22:41:30.161Z,13.60
2018-04-13T22:43:58.566Z,13.60
2018-04-13T22:46:27.317Z,13.60
2018-04-13T22:48:55.382Z,13.60
2018-04-13T22:51:23.451Z,13.60
2018-04-13T22:53:51.506Z,13.60
2018-04-13T22:56:19.606Z,13.60
2018-04-13T22:58:47.667Z,13.60
2018-04-13T23:01:15.749Z,13.50
2018-04-13T23:03:43.855Z,13.60
2018-04-13T23:06:12.708Z,13.60
2018-04-13T23:08:40.771Z,13.60
2018-04-13T23:11:08.840Z,13.50
2018-04-13T23:13:36.914Z,13.50
2018-04-13T23:16:04.971Z,13.50
2018-04-13T23:18:33.070Z,13.50
2018-04-13T23:21:01.102Z,13.50
2018-04-13T23:23:29.970Z,13.50
2018-04-13T23:25:58.057Z,13.40
2018-04-13T23:28:26.174Z,13.30
2018-04-13T23:30:55.117Z,13.30
2018-04-13T23:33:23.202Z,13.30
2018-04-13T23:35:51.269Z,13.30
2018-04-13T23:38:19.427Z,13.30
2018-04-13T23:40:47.483Z,13.20
2018-04-13T23:43:16.320Z,13.20
2018-04-13T23:45:44.389Z,13.20
2018-04-13T23:48:12.452Z,13.20
2018-04-13T23:50:40.521Z,13.10
2018-04-13T23:53:08.588Z,13.10
2018-04-13T23:55:36.643Z,13.10
2018-04-13T23:58:05.100Z,13.10
